sensor_id;sensor_type;location;lat;lon;timestamp;temperature;humidity
71084;DHT22;58741;52.672;13.548;2022-10-24T00:02:24;13.60;95.30
71084;DHT22;58741;52.672;13.548;2022-10-24T00:04:50;13.60;95.20
71084;DHT22;58741;52.672;13.548;2022-10-24T00:07:15;13.60;95.30
71084;DHT22;58741;52.672;13.548;2022-10-24T00:09:41;13.60;95.70
71084;DHT22;58741;52.672;13.548;2022-10-24T00:12:07;13.60;95.30
71084;DHT22;58741;52.672;13.548;2022-10-24T00:14:34;13.60;95.40
71084;DHT22;58741;52.672;13.548;2022-10-24T00:17:00;13.60;96.30
71084;DHT22;58741;52.672;13.548;2022-10-24T00:19:26;13.60;96.20
71084;DHT22;58741;52.672;13.548;2022-10-24T00:21:52;13.60;96.10
71084;DHT22;58741;52.672;13.548;2022-10-24T00:24:18;13.60;95.80
71084;DHT22;58741;52.672;13.548;2022-10-24T00:26:43;13.50;96.00
71084;DHT22;58741;52.672;13.548;2022-10-24T00:29:09;13.50;96.30
71084;DHT22;58741;52.672;13.548;2022-10-24T00:31:35;13.50;95.90
71084;DHT22;58741;52.672;13.548;2022-10-24T00:34:01;13.50;96.20
71084;DHT22;58741;52.672;13.548;2022-10-24T00:36:27;13.50;96.40
71084;DHT22;58741;52.672;13.548;2022-10-24T00:38:53;13.50;96.70
71084;DHT22;58741;52.672;13.548;2022-10-24T00:41:28;13.50;96.70
71084;DHT22;58741;52.672;13.548;2022-10-24T00:46:46;13.40;97.30
71084;DHT22;58741;52.672;13.548;2022-10-24T00:49:14;13.50;97.30
71084;DHT22;58741;52.672;13.548;2022-10-24T00:51:40;13.40;97.30
71084;DHT22;58741;52.672;13.548;2022-10-24T00:54:09;13.40;97.70
71084;DHT22;58741;52.672;13.548;2022-10-24T00:56:38;13.40;97.40
71084;DHT22;58741;52.672;13.548;2022-10-24T00:59:06;13.40;97.60
71084;DHT22;58741;52.672;13.548;2022-10-24T01:01:33;13.40;97.80
71084;DHT22;58741;52.672;13.548;2022-10-24T01:03:59;13.40;98.10
71084;DHT22;58741;52.672;13.548;2022-10-24T01:06:54;13.40;98.00
71084;DHT22;58741;52.672;13.548;2022-10-24T01:12:29;13.40;98.40
71084;DHT22;58741;52.672;13.548;2022-10-24T01:15:16;13.50;98.60
71084;DHT22;58741;52.672;13.548;2022-10-24T01:26:38;13.50;98.00
71084;DHT22;58741;52.672;13.548;2022-10-24T01:29:17;13.50;98.10
71084;DHT22;58741;52.672;13.548;2022-10-24T01:32:20;13.50;98.40
71084;DHT22;58741;52.672;13.548;2022-10-24T01:34:57;13.50;98.60
71084;DHT22;58741;52.672;13.548;2022-10-24T01:37:35;13.50;98.70
71084;DHT22;58741;52.672;13.548;2022-10-24T01:40:06;13.50;98.60
71084;DHT22;58741;52.672;13.548;2022-10-24T01:42:35;13.60;98.30
71084;DHT22;58741;52.672;13.548;2022-10-24T01:45:03;13.50;98.60
71084;DHT22;58741;52.672;13.548;2022-10-24T01:47:36;13.50;98.60
71084;DHT22;58741;52.672;13.548;2022-10-24T01:50:06;13.50;98.50
71084;DHT22;58741;52.672;13.548;2022-10-24T01:52:35;13.50;98.50
71084;DHT22;58741;52.672;13.548;2022-10-24T01:55:02;13.50;98.60
71084;DHT22;58741;52.672;13.548;2022-10-24T01:57:29;13.50;98.50
71084;DHT22;58741;52.672;13.548;2022-10-24T01:59:55;13.50;98.50
71084;DHT22;58741;52.672;13.548;2022-10-24T02:02:27;13.40;98.70
71084;DHT22;58741;52.672;13.548;2022-10-24T02:05:02;13.40;98.90
71084;DHT22;58741;52.672;13.548;2022-10-24T02:07:29;13.50;98.80
71084;DHT22;58741;52.672;13.548;2022-10-24T02:10:03;13.40;98.60
71084;DHT22;58741;52.672;13.548;2022-10-24T02:12:30;13.40;98.60
71084;DHT22;58741;52.672;13.548;2022-10-24T02:15:01;13.40;98.30
71084;DHT22;58741;52.672;13.548;2022-10-24T02:17:27;13.40;98.30
71084;DHT22;58741;52.672;13.548;2022-10-24T02:19:53;13.40;98.10
71084;DHT22;58741;52.672;13.548;2022-10-24T02:25:09;13.30;98.10
71084;DHT22;58741;52.672;13.548;2022-10-24T02:27:49;13.30;98.10
71084;DHT22;58741;52.672;13.548;2022-10-24T02:30:22;13.30;97.80
71084;DHT22;58741;52.672;13.548;2022-10-24T02:32:51;13.20;97.70
71084;DHT22;58741;52.672;13.548;2022-10-24T02:35:23;13.20;97.40
71084;DHT22;58741;52.672;13.548;2022-10-24T02:37:53;13.20;97.30
71084;DHT22;58741;52.672;13.548;2022-10-24T02:40:20;13.10;97.20
71084;DHT22;58741;52.672;13.548;2022-10-24T02:42:49;13.10;97.30
71084;DHT22;58741;52.672;13.548;2022-10-24T02:45:16;13.10;97.40
71084;DHT22;58741;52.672;13.548;2022-10-24T02:47:43;13.00;97.50
71084;DHT22;58741;52.672;13.548;2022-10-24T02:50:10;13.00;97.80
71084;DHT22;58741;52.672;13.548;2022-10-24T02:52:37;13.00;97.60
71084;DHT22;58741;52.672;13.548;2022-10-24T02:55:03;13.00;97.60
71084;DHT22;58741;52.672;13.548;2022-10-24T02:57:29;12.90;97.40
71084;DHT22;58741;52.672;13.548;2022-10-24T02:59:55;12.90;97.30
71084;DHT22;58741;52.672;13.548;2022-10-24T03:02:21;12.90;97.40
71084;DHT22;58741;52.672;13.548;2022-10-24T03:04:46;12.80;97.20
71084;DHT22;58741;52.672;13.548;2022-10-24T03:07:12;12.80;97.40
71084;DHT22;58741;52.672;13.548;2022-10-24T03:09:38;12.80;97.70
71084;DHT22;58741;52.672;13.548;2022-10-24T03:12:03;12.80;97.70
71084;DHT22;58741;52.672;13.548;2022-10-24T03:14:29;12.70;97.50
71084;DHT22;58741;52.672;13.548;2022-10-24T03:16:55;12.70;97.30
71084;DHT22;58741;52.672;13.548;2022-10-24T03:19:20;12.70;97.20
71084;DHT22;58741;52.672;13.548;2022-10-24T03:21:46;12.60;97.00
71084;DHT22;58741;52.672;13.548;2022-10-24T03:24:11;12.60;97.00
71084;DHT22;58741;52.672;13.548;2022-10-24T03:26:37;12.60;97.20
71084;DHT22;58741;52.672;13.548;2022-10-24T03:29:02;12.50;97.10
71084;DHT22;58741;52.672;13.548;2022-10-24T03:31:28;12.50;97.10
71084;DHT22;58741;52.672;13.548;2022-10-24T03:33:56;12.50;97.20
71084;DHT22;58741;52.672;13.548;2022-10-24T03:36:22;12.50;97.30
71084;DHT22;58741;52.672;13.548;2022-10-24T03:38:47;12.40;97.50
71084;DHT22;58741;52.672;13.548;2022-10-24T03:41:13;12.40;97.30
71084;DHT22;58741;52.672;13.548;2022-10-24T03:43:38;12.40;97.40
71084;DHT22;58741;52.672;13.548;2022-10-24T03:46:04;12.30;97.60
71084;DHT22;58741;52.672;13.548;2022-10-24T03:48:29;12.30;97.50
71084;DHT22;58741;52.672;13.548;2022-10-24T03:50:55;12.30;97.70
71084;DHT22;58741;52.672;13.548;2022-10-24T03:53:21;12.30;98.20
71084;DHT22;58741;52.672;13.548;2022-10-24T03:55:46;12.30;98.60
71084;DHT22;58741;52.672;13.548;2022-10-24T03:58:12;12.30;98.50
71084;DHT22;58741;52.672;13.548;2022-10-24T04:00:37;12.30;98.70
71084;DHT22;58741;52.672;13.548;2022-10-24T04:03:05;12.30;99.10
71084;DHT22;58741;52.672;13.548;2022-10-24T04:05:31;12.30;98.70
71084;DHT22;58741;52.672;13.548;2022-10-24T04:07:57;12.20;98.70
71084;DHT22;58741;52.672;13.548;2022-10-24T04:10:23;12.20;98.60
71084;DHT22;58741;52.672;13.548;2022-10-24T04:12:48;12.20;98.70
71084;DHT22;58741;52.672;13.548;2022-10-24T04:15:14;12.20;98.60
71084;DHT22;58741;52.672;13.548;2022-10-24T04:17:39;12.20;98.60
71084;DHT22;58741;52.672;13.548;2022-10-24T04:20:05;12.20;98.70
71084;DHT22;58741;52.672;13.548;2022-10-24T04:22:31;12.20;98.40
71084;DHT22;58741;52.672;13.548;2022-10-24T04:24:56;12.10;98.50
71084;DHT22;58741;52.672;13.548;2022-10-24T04:27:22;12.10;98.40
71084;DHT22;58741;52.672;13.548;2022-10-24T04:29:48;12.10;98.30
71084;DHT22;58741;52.672;13.548;2022-10-24T04:32:13;12.10;98.50
71084;DHT22;58741;52.672;13.548;2022-10-24T04:34:39;12.10;99.30
71084;DHT22;58741;52.672;13.548;2022-10-24T04:37:04;12.10;99.00
71084;DHT22;58741;52.672;13.548;2022-10-24T04:39:30;12.10;99.20
71084;DHT22;58741;52.672;13.548;2022-10-24T04:41:55;12.00;99.10
71084;DHT22;58741;52.672;13.548;2022-10-24T04:44:21;12.10;99.00
71084;DHT22;58741;52.672;13.548;2022-10-24T04:46:47;12.00;98.90
71084;DHT22;58741;52.672;13.548;2022-10-24T04:49:12;12.00;98.70
71084;DHT22;58741;52.672;13.548;2022-10-24T04:51:38;12.00;99.10
71084;DHT22;58741;52.672;13.548;2022-10-24T04:54:04;12.00;98.90
71084;DHT22;58741;52.672;13.548;2022-10-24T04:56:30;12.00;98.90
71084;DHT22;58741;52.672;13.548;2022-10-24T04:58:55;12.00;98.70
71084;DHT22;58741;52.672;13.548;2022-10-24T05:01:21;12.00;98.60
71084;DHT22;58741;52.672;13.548;2022-10-24T05:03:46;11.90;98.60
71084;DHT22;58741;52.672;13.548;2022-10-24T05:06:12;11.90;98.60
71084;DHT22;58741;52.672;13.548;2022-10-24T05:08:38;11.90;98.80
71084;DHT22;58741;52.672;13.548;2022-10-24T05:11:04;11.90;98.80
71084;DHT22;58741;52.672;13.548;2022-10-24T05:13:29;11.90;98.80
71084;DHT22;58741;52.672;13.548;2022-10-24T05:15:55;11.90;98.90
71084;DHT22;58741;52.672;13.548;2022-10-24T05:18:20;11.80;98.70
71084;DHT22;58741;52.672;13.548;2022-10-24T05:20:46;11.80;98.70
71084;DHT22;58741;52.672;13.548;2022-10-24T05:23:11;11.80;98.90
71084;DHT22;58741;52.672;13.548;2022-10-24T05:25:37;11.80;99.40
71084;DHT22;58741;52.672;13.548;2022-10-24T05:28:03;11.80;99.30
71084;DHT22;58741;52.672;13.548;2022-10-24T05:30:28;11.80;99.20
71084;DHT22;58741;52.672;13.548;2022-10-24T05:32:54;11.80;99.30
71084;DHT22;58741;52.672;13.548;2022-10-24T05:35:19;11.80;99.40
71084;DHT22;58741;52.672;13.548;2022-10-24T05:37:45;11.80;99.20
71084;DHT22;58741;52.672;13.548;2022-10-24T05:40:11;11.80;99.20
71084;DHT22;58741;52.672;13.548;2022-10-24T05:42:37;11.80;99.20
71084;DHT22;58741;52.672;13.548;2022-10-24T05:45:07;11.80;99.20
71084;DHT22;58741;52.672;13.548;2022-10-24T05:47:33;11.80;99.30
71084;DHT22;58741;52.672;13.548;2022-10-24T05:49:58;11.80;99.30
71084;DHT22;58741;52.672;13.548;2022-10-24T05:52:24;11.70;99.20
71084;DHT22;58741;52.672;13.548;2022-10-24T05:54:49;11.70;99.40
71084;DHT22;58741;52.672;13.548;2022-10-24T05:57:15;11.70;99.40
71084;DHT22;58741;52.672;13.548;2022-10-24T05:59:40;11.70;99.40
71084;DHT22;58741;52.672;13.548;2022-10-24T06:02:06;11.70;99.40
71084;DHT22;58741;52.672;13.548;2022-10-24T06:04:31;11.70;99.10
71084;DHT22;58741;52.672;13.548;2022-10-24T06:06:57;11.70;98.90
71084;DHT22;58741;52.672;13.548;2022-10-24T06:09:23;11.60;98.70
71084;DHT22;58741;52.672;13.548;2022-10-24T06:11:48;11.70;98.70
71084;DHT22;58741;52.672;13.548;2022-10-24T06:14:14;11.60;98.60
71084;DHT22;58741;52.672;13.548;2022-10-24T06:16:41;11.60;98.50
71084;DHT22;58741;52.672;13.548;2022-10-24T06:19:07;11.60;98.40
71084;DHT22;58741;52.672;13.548;2022-10-24T06:21:32;11.60;98.30
71084;DHT22;58741;52.672;13.548;2022-10-24T06:23:58;11.60;98.20
71084;DHT22;58741;52.672;13.548;2022-10-24T06:26:24;11.60;98.20
71084;DHT22;58741;52.672;13.548;2022-10-24T06:28:49;11.50;98.10
71084;DHT22;58741;52.672;13.548;2022-10-24T06:31:15;11.50;98.50
71084;DHT22;58741;52.672;13.548;2022-10-24T06:33:40;11.50;98.20
71084;DHT22;58741;52.672;13.548;2022-10-24T06:36:06;11.60;98.30
71084;DHT22;58741;52.672;13.548;2022-10-24T06:38:35;11.50;98.70
71084;DHT22;58741;52.672;13.548;2022-10-24T06:41:08;11.60;98.90
71084;DHT22;58741;52.672;13.548;2022-10-24T06:43:35;11.60;99.00
71084;DHT22;58741;52.672;13.548;2022-10-24T06:46:05;11.60;99.50
71084;DHT22;58741;52.672;13.548;2022-10-24T06:48:31;11.60;99.60
71084;DHT22;58741;52.672;13.548;2022-10-24T06:50:57;11.70;99.80
71084;DHT22;58741;52.672;13.548;2022-10-24T06:53:22;11.70;99.80
71084;DHT22;58741;52.672;13.548;2022-10-24T06:55:48;11.70;99.80
71084;DHT22;58741;52.672;13.548;2022-10-24T06:58:13;11.70;99.90
71084;DHT22;58741;52.672;13.548;2022-10-24T07:00:39;11.80;99.90
71084;DHT22;58741;52.672;13.548;2022-10-24T07:03:04;11.80;99.90
71084;DHT22;58741;52.672;13.548;2022-10-24T07:05:30;11.90;99.90
71084;DHT22;58741;52.672;13.548;2022-10-24T07:07:56;11.90;99.90
71084;DHT22;58741;52.672;13.548;2022-10-24T07:10:21;11.90;99.90
71084;DHT22;58741;52.672;13.548;2022-10-24T07:12:47;12.00;99.90
71084;DHT22;58741;52.672;13.548;2022-10-24T07:15:12;12.00;99.90
71084;DHT22;58741;52.672;13.548;2022-10-24T07:17:40;12.10;99.90
71084;DHT22;58741;52.672;13.548;2022-10-24T07:20:06;12.10;99.90
71084;DHT22;58741;52.672;13.548;2022-10-24T07:22:32;12.20;99.90
71084;DHT22;58741;52.672;13.548;2022-10-24T07:24:57;12.20;99.90
71084;DHT22;58741;52.672;13.548;2022-10-24T07:27:23;12.30;99.90
71084;DHT22;58741;52.672;13.548;2022-10-24T07:29:49;12.40;99.90
71084;DHT22;58741;52.672;13.548;2022-10-24T07:32:17;12.40;99.90
71084;DHT22;58741;52.672;13.548;2022-10-24T07:34:43;12.50;99.90
71084;DHT22;58741;52.672;13.548;2022-10-24T07:37:08;12.60;99.90
71084;DHT22;58741;52.672;13.548;2022-10-24T07:39:34;12.60;99.90
71084;DHT22;58741;52.672;13.548;2022-10-24T07:41:59;12.70;99.90
71084;DHT22;58741;52.672;13.548;2022-10-24T07:44:25;12.80;99.90
71084;DHT22;58741;52.672;13.548;2022-10-24T07:46:50;12.80;99.90
71084;DHT22;58741;52.672;13.548;2022-10-24T07:49:16;12.90;99.90
71084;DHT22;58741;52.672;13.548;2022-10-24T07:51:42;13.00;99.90
71084;DHT22;58741;52.672;13.548;2022-10-24T07:54:08;13.10;99.90
71084;DHT22;58741;52.672;13.548;2022-10-24T07:56:33;13.20;99.90
71084;DHT22;58741;52.672;13.548;2022-10-24T07:59:00;13.20;99.90
71084;DHT22;58741;52.672;13.548;2022-10-24T08:01:27;13.30;99.90
71084;DHT22;58741;52.672;13.548;2022-10-24T08:03:53;13.40;99.90
71084;DHT22;58741;52.672;13.548;2022-10-24T08:06:21;13.50;99.90
71084;DHT22;58741;52.672;13.548;2022-10-24T08:08:47;13.60;99.90
71084;DHT22;58741;52.672;13.548;2022-10-24T08:11:18;13.60;99.90
71084;DHT22;58741;52.672;13.548;2022-10-24T08:13:46;13.70;99.90
71084;DHT22;58741;52.672;13.548;2022-10-24T08:16:13;13.80;99.90
71084;DHT22;58741;52.672;13.548;2022-10-24T08:18:39;13.90;99.90
71084;DHT22;58741;52.672;13.548;2022-10-24T08:21:06;14.00;99.90
71084;DHT22;58741;52.672;13.548;2022-10-24T08:23:34;14.10;99.90
71084;DHT22;58741;52.672;13.548;2022-10-24T08:26:03;14.20;99.90
71084;DHT22;58741;52.672;13.548;2022-10-24T08:28:29;14.40;99.90
71084;DHT22;58741;52.672;13.548;2022-10-24T08:31:00;14.50;99.90
71084;DHT22;58741;52.672;13.548;2022-10-24T08:33:26;14.60;99.90
71084;DHT22;58741;52.672;13.548;2022-10-24T08:35:53;14.80;99.90
71084;DHT22;58741;52.672;13.548;2022-10-24T08:38:22;14.90;99.90
71084;DHT22;58741;52.672;13.548;2022-10-24T08:40:47;15.00;99.90
71084;DHT22;58741;52.672;13.548;2022-10-24T08:43:14;15.10;99.90
71084;DHT22;58741;52.672;13.548;2022-10-24T08:48:22;15.30;99.90
71084;DHT22;58741;52.672;13.548;2022-10-24T08:50:54;15.50;99.90
71084;DHT22;58741;52.672;13.548;2022-10-24T08:53:25;15.60;99.50
71084;DHT22;58741;52.672;13.548;2022-10-24T08:55:57;15.70;99.10
71084;DHT22;58741;52.672;13.548;2022-10-24T08:58:35;15.80;98.80
71084;DHT22;58741;52.672;13.548;2022-10-24T09:01:06;15.80;98.30
71084;DHT22;58741;52.672;13.548;2022-10-24T09:03:46;15.90;98.10
71084;DHT22;58741;52.672;13.548;2022-10-24T09:06:17;16.00;98.20
71084;DHT22;58741;52.672;13.548;2022-10-24T09:14:36;16.20;97.00
71084;DHT22;58741;52.672;13.548;2022-10-24T09:19:34;16.40;97.10
71084;DHT22;58741;52.672;13.548;2022-10-24T09:22:00;16.40;96.60
71084;DHT22;58741;52.672;13.548;2022-10-24T09:24:43;16.50;96.70
71084;DHT22;58741;52.672;13.548;2022-10-24T09:27:15;16.60;96.80
71084;DHT22;58741;52.672;13.548;2022-10-24T09:29:42;16.70;96.20
71084;DHT22;58741;52.672;13.548;2022-10-24T09:32:16;16.70;96.00
71084;DHT22;58741;52.672;13.548;2022-10-24T09:34:43;16.80;96.30
71084;DHT22;58741;52.672;13.548;2022-10-24T09:42:34;17.10;95.10
71084;DHT22;58741;52.672;13.548;2022-10-24T09:45:28;17.10;94.50
71084;DHT22;58741;52.672;13.548;2022-10-24T09:47:56;17.20;94.80
71084;DHT22;58741;52.672;13.548;2022-10-24T09:50:23;17.20;94.20
71084;DHT22;58741;52.672;13.548;2022-10-24T09:52:50;17.20;94.10
71084;DHT22;58741;52.672;13.548;2022-10-24T09:55:20;17.20;93.80
71084;DHT22;58741;52.672;13.548;2022-10-24T09:57:47;17.20;93.90
71084;DHT22;58741;52.672;13.548;2022-10-24T10:00:26;17.30;94.30
71084;DHT22;58741;52.672;13.548;2022-10-24T10:06:18;17.40;93.90
71084;DHT22;58741;52.672;13.548;2022-10-24T10:08:49;17.40;93.70
71084;DHT22;58741;52.672;13.548;2022-10-24T10:11:24;17.50;94.00
71084;DHT22;58741;52.672;13.548;2022-10-24T10:13:51;17.50;94.10
71084;DHT22;58741;52.672;13.548;2022-10-24T10:16:27;17.50;93.90
71084;DHT22;58741;52.672;13.548;2022-10-24T10:19:14;17.60;94.00
71084;DHT22;58741;52.672;13.548;2022-10-24T10:22:23;17.60;94.00
71084;DHT22;58741;52.672;13.548;2022-10-24T10:24:49;17.70;93.40
71084;DHT22;58741;52.672;13.548;2022-10-24T10:27:36;17.80;93.40
71084;DHT22;58741;52.672;13.548;2022-10-24T10:32:42;17.90;92.60
71084;DHT22;58741;52.672;13.548;2022-10-24T10:35:33;18.00;92.30
71084;DHT22;58741;52.672;13.548;2022-10-24T10:44:15;18.10;92.40
71084;DHT22;58741;52.672;13.548;2022-10-24T10:47:15;18.10;92.10
71084;DHT22;58741;52.672;13.548;2022-10-24T10:49:39;18.20;91.50
71084;DHT22;58741;52.672;13.548;2022-10-24T10:57:26;18.20;91.30
71084;DHT22;58741;52.672;13.548;2022-10-24T11:05:42;18.20;91.00
71084;DHT22;58741;52.672;13.548;2022-10-24T11:10:58;18.20;90.80
71084;DHT22;58741;52.672;13.548;2022-10-24T11:13:31;18.20;90.40
71084;DHT22;58741;52.672;13.548;2022-10-24T11:16:00;18.20;90.50
71084;DHT22;58741;52.672;13.548;2022-10-24T11:18:33;18.20;90.50
71084;DHT22;58741;52.672;13.548;2022-10-24T11:21:04;18.20;90.40
71084;DHT22;58741;52.672;13.548;2022-10-24T11:23:40;18.20;90.20
71084;DHT22;58741;52.672;13.548;2022-10-24T11:28:55;18.20;90.70
71084;DHT22;58741;52.672;13.548;2022-10-24T11:31:26;18.20;90.70
71084;DHT22;58741;52.672;13.548;2022-10-24T11:33:59;18.30;90.20
71084;DHT22;58741;52.672;13.548;2022-10-24T11:36:29;18.30;90.70
71084;DHT22;58741;52.672;13.548;2022-10-24T11:39:03;18.30;90.40
71084;DHT22;58741;52.672;13.548;2022-10-24T11:44:21;18.30;90.60
71084;DHT22;58741;52.672;13.548;2022-10-24T11:46:55;18.30;90.40
71084;DHT22;58741;52.672;13.548;2022-10-24T11:49:30;18.30;90.30
71084;DHT22;58741;52.672;13.548;2022-10-24T11:52:07;18.30;90.40
71084;DHT22;58741;52.672;13.548;2022-10-24T11:54:43;18.40;89.70
71084;DHT22;58741;52.672;13.548;2022-10-24T11:57:16;18.40;90.20
71084;DHT22;58741;52.672;13.548;2022-10-24T11:59:42;18.40;88.30
71084;DHT22;58741;52.672;13.548;2022-10-24T12:08:31;18.30;90.10
71084;DHT22;58741;52.672;13.548;2022-10-24T12:17:22;18.40;89.70
71084;DHT22;58741;52.672;13.548;2022-10-24T12:19:52;18.40;89.30
71084;DHT22;58741;52.672;13.548;2022-10-24T12:22:23;18.40;89.40
71084;DHT22;58741;52.672;13.548;2022-10-24T12:25:27;18.40;88.80
71084;DHT22;58741;52.672;13.548;2022-10-24T12:27:55;18.40;89.90
71084;DHT22;58741;52.672;13.548;2022-10-24T12:30:23;18.40;89.70
71084;DHT22;58741;52.672;13.548;2022-10-24T12:43:42;18.60;87.80
71084;DHT22;58741;52.672;13.548;2022-10-24T12:48:44;18.70;87.00
71084;DHT22;58741;52.672;13.548;2022-10-24T12:51:32;18.60;88.40
71084;DHT22;58741;52.672;13.548;2022-10-24T12:59:27;18.70;86.60
71084;DHT22;58741;52.672;13.548;2022-10-24T13:07:34;18.70;87.70
71084;DHT22;58741;52.672;13.548;2022-10-24T13:10:29;18.70;88.00
71084;DHT22;58741;52.672;13.548;2022-10-24T13:13:25;18.80;88.80
71084;DHT22;58741;52.672;13.548;2022-10-24T13:16:23;18.90;88.30
71084;DHT22;58741;52.672;13.548;2022-10-24T13:21:52;18.90;87.60
71084;DHT22;58741;52.672;13.548;2022-10-24T13:24:29;18.90;86.40
71084;DHT22;58741;52.672;13.548;2022-10-24T13:34:51;19.00;86.20
71084;DHT22;58741;52.672;13.548;2022-10-24T13:37:39;19.00;86.00
71084;DHT22;58741;52.672;13.548;2022-10-24T13:42:54;18.90;86.10
71084;DHT22;58741;52.672;13.548;2022-10-24T13:48:12;18.90;84.80
71084;DHT22;58741;52.672;13.548;2022-10-24T13:50:46;18.90;84.20
71084;DHT22;58741;52.672;13.548;2022-10-24T13:53:19;18.90;84.10
71084;DHT22;58741;52.672;13.548;2022-10-24T13:55:48;18.80;84.70
71084;DHT22;58741;52.672;13.548;2022-10-24T13:58:18;18.80;84.00
71084;DHT22;58741;52.672;13.548;2022-10-24T14:01:05;18.80;84.70
71084;DHT22;58741;52.672;13.548;2022-10-24T14:03:33;18.70;84.90
71084;DHT22;58741;52.672;13.548;2022-10-24T14:06:01;18.70;84.70
71084;DHT22;58741;52.672;13.548;2022-10-24T14:08:36;18.60;84.30
71084;DHT22;58741;52.672;13.548;2022-10-24T14:11:06;18.60;84.40
71084;DHT22;58741;52.672;13.548;2022-10-24T14:13:38;18.60;83.50
71084;DHT22;58741;52.672;13.548;2022-10-24T14:16:07;18.60;84.90
71084;DHT22;58741;52.672;13.548;2022-10-24T14:18:32;18.50;84.80
71084;DHT22;58741;52.672;13.548;2022-10-24T14:21:02;18.50;85.80
71084;DHT22;58741;52.672;13.548;2022-10-24T14:23:35;18.50;85.60
71084;DHT22;58741;52.672;13.548;2022-10-24T14:26:04;18.50;85.10
71084;DHT22;58741;52.672;13.548;2022-10-24T14:28:37;18.40;85.20
71084;DHT22;58741;52.672;13.548;2022-10-24T14:31:05;18.40;85.90
71084;DHT22;58741;52.672;13.548;2022-10-24T14:33:42;18.40;86.00
71084;DHT22;58741;52.672;13.548;2022-10-24T14:36:08;18.30;86.40
71084;DHT22;58741;52.672;13.548;2022-10-24T14:38:34;18.30;86.60
71084;DHT22;58741;52.672;13.548;2022-10-24T14:41:00;18.30;86.60
71084;DHT22;58741;52.672;13.548;2022-10-24T14:43:28;18.30;86.30
71084;DHT22;58741;52.672;13.548;2022-10-24T14:48:49;18.20;86.80
71084;DHT22;58741;52.672;13.548;2022-10-24T14:51:30;18.20;86.90
71084;DHT22;58741;52.672;13.548;2022-10-24T14:54:03;18.20;87.00
71084;DHT22;58741;52.672;13.548;2022-10-24T14:56:34;18.20;86.90
71084;DHT22;58741;52.672;13.548;2022-10-24T14:59:03;18.10;87.30
71084;DHT22;58741;52.672;13.548;2022-10-24T15:01:29;18.10;87.00
71084;DHT22;58741;52.672;13.548;2022-10-24T15:04:02;18.10;86.10
71084;DHT22;58741;52.672;13.548;2022-10-24T15:11:41;17.90;86.50
71084;DHT22;58741;52.672;13.548;2022-10-24T15:19:44;17.80;87.00
71084;DHT22;58741;52.672;13.548;2022-10-24T15:22:32;17.80;87.10
71084;DHT22;58741;52.672;13.548;2022-10-24T15:25:00;17.70;87.30
71084;DHT22;58741;52.672;13.548;2022-10-24T15:27:37;17.70;87.50
71084;DHT22;58741;52.672;13.548;2022-10-24T15:30:05;17.60;87.80
71084;DHT22;58741;52.672;13.548;2022-10-24T15:32:30;17.50;87.50
71084;DHT22;58741;52.672;13.548;2022-10-24T15:34:56;17.50;87.40
71084;DHT22;58741;52.672;13.548;2022-10-24T15:37:24;17.40;87.50
71084;DHT22;58741;52.672;13.548;2022-10-24T15:39:51;17.40;87.90
71084;DHT22;58741;52.672;13.548;2022-10-24T15:42:17;17.30;88.10
71084;DHT22;58741;52.672;13.548;2022-10-24T15:44:42;17.30;88.30
71084;DHT22;58741;52.672;13.548;2022-10-24T15:47:08;17.20;88.30
71084;DHT22;58741;52.672;13.548;2022-10-24T15:49:34;17.20;88.60
71084;DHT22;58741;52.672;13.548;2022-10-24T15:52:00;17.10;88.70
71084;DHT22;58741;52.672;13.548;2022-10-24T15:54:29;17.10;88.80
71084;DHT22;58741;52.672;13.548;2022-10-24T15:56:55;17.00;89.00
71084;DHT22;58741;52.672;13.548;2022-10-24T15:59:20;17.00;89.20
71084;DHT22;58741;52.672;13.548;2022-10-24T16:01:53;16.90;89.50
71084;DHT22;58741;52.672;13.548;2022-10-24T16:04:20;16.90;89.90
71084;DHT22;58741;52.672;13.548;2022-10-24T16:06:47;16.90;90.00
71084;DHT22;58741;52.672;13.548;2022-10-24T16:09:19;16.80;90.10
71084;DHT22;58741;52.672;13.548;2022-10-24T16:11:45;16.80;90.30
71084;DHT22;58741;52.672;13.548;2022-10-24T16:14:16;16.70;90.30
71084;DHT22;58741;52.672;13.548;2022-10-24T16:16:42;16.70;90.50
71084;DHT22;58741;52.672;13.548;2022-10-24T16:19:08;16.70;90.60
71084;DHT22;58741;52.672;13.548;2022-10-24T16:21:34;16.70;90.60
71084;DHT22;58741;52.672;13.548;2022-10-24T16:24:00;16.60;90.70
71084;DHT22;58741;52.672;13.548;2022-10-24T16:26:25;16.70;90.70
71084;DHT22;58741;52.672;13.548;2022-10-24T16:28:51;16.60;90.70
71084;DHT22;58741;52.672;13.548;2022-10-24T16:31:17;16.60;90.70
71084;DHT22;58741;52.672;13.548;2022-10-24T16:33:44;16.60;90.90
71084;DHT22;58741;52.672;13.548;2022-10-24T16:36:09;16.50;90.90
71084;DHT22;58741;52.672;13.548;2022-10-24T16:38:35;16.50;91.00
71084;DHT22;58741;52.672;13.548;2022-10-24T16:41:00;16.50;91.10
71084;DHT22;58741;52.672;13.548;2022-10-24T16:43:27;16.40;91.10
71084;DHT22;58741;52.672;13.548;2022-10-24T16:46:00;16.40;91.20
71084;DHT22;58741;52.672;13.548;2022-10-24T16:48:27;16.40;91.10
71084;DHT22;58741;52.672;13.548;2022-10-24T16:50:53;16.40;91.10
71084;DHT22;58741;52.672;13.548;2022-10-24T16:53:19;16.40;91.10
71084;DHT22;58741;52.672;13.548;2022-10-24T16:55:47;16.40;91.20
71084;DHT22;58741;52.672;13.548;2022-10-24T16:58:13;16.40;91.20
71084;DHT22;58741;52.672;13.548;2022-10-24T17:00:39;16.30;91.20
71084;DHT22;58741;52.672;13.548;2022-10-24T17:03:04;16.30;91.20
71084;DHT22;58741;52.672;13.548;2022-10-24T17:05:30;16.30;91.30
71084;DHT22;58741;52.672;13.548;2022-10-24T17:07:55;16.30;91.30
71084;DHT22;58741;52.672;13.548;2022-10-24T17:10:21;16.30;91.30
71084;DHT22;58741;52.672;13.548;2022-10-24T17:12:47;16.20;91.30
71084;DHT22;58741;52.672;13.548;2022-10-24T17:15:13;16.20;91.40
71084;DHT22;58741;52.672;13.548;2022-10-24T17:17:39;16.20;91.40
71084;DHT22;58741;52.672;13.548;2022-10-24T17:20:06;16.10;91.40
71084;DHT22;58741;52.672;13.548;2022-10-24T17:22:33;16.10;91.40
71084;DHT22;58741;52.672;13.548;2022-10-24T17:24:59;16.10;91.50
71084;DHT22;58741;52.672;13.548;2022-10-24T17:27:24;16.10;91.50
71084;DHT22;58741;52.672;13.548;2022-10-24T17:29:50;16.10;91.40
71084;DHT22;58741;52.672;13.548;2022-10-24T17:32:17;16.10;91.50
71084;DHT22;58741;52.672;13.548;2022-10-24T17:34:43;16.00;91.60
71084;DHT22;58741;52.672;13.548;2022-10-24T17:37:31;16.00;91.50
71084;DHT22;58741;52.672;13.548;2022-10-24T17:40:15;16.00;91.60